sensor_id;sensor_type;location;lat;lon;timestamp;temperature;humidity
18577;DHT22;9418;52.694;13.294;2023-12-20T00:01:27;6.60;99.90
18577;DHT22;9418;52.694;13.294;2023-12-20T00:03:54;6.60;99.90
18577;DHT22;9418;52.694;13.294;2023-12-20T00:06:20;6.60;99.90
18577;DHT22;9418;52.694;13.294;2023-12-20T00:08:48;6.60;99.90
18577;DHT22;9418;52.694;13.294;2023-12-20T00:11:15;6.60;99.90
18577;DHT22;9418;52.694;13.294;2023-12-20T00:13:41;6.60;99.90
18577;DHT22;9418;52.694;13.294;2023-12-20T00:16:09;6.60;99.90
18577;DHT22;9418;52.694;13.294;2023-12-20T00:18:35;6.60;99.90
18577;DHT22;9418;52.694;13.294;2023-12-20T00:21:02;6.60;99.90
18577;DHT22;9418;52.694;13.294;2023-12-20T00:23:29;6.60;99.90
18577;DHT22;9418;52.694;13.294;2023-12-20T00:25:57;6.60;99.90
18577;DHT22;9418;52.694;13.294;2023-12-20T00:28:23;6.60;99.90
18577;DHT22;9418;52.694;13.294;2023-12-20T00:30:50;6.60;99.90
18577;DHT22;9418;52.694;13.294;2023-12-20T00:33:17;6.60;99.90
18577;DHT22;9418;52.694;13.294;2023-12-20T00:35:43;6.60;99.90
18577;DHT22;9418;52.694;13.294;2023-12-20T00:38:10;6.60;99.90
18577;DHT22;9418;52.694;13.294;2023-12-20T00:40:37;6.60;99.90
18577;DHT22;9418;52.694;13.294;2023-12-20T00:43:05;6.60;99.90
18577;DHT22;9418;52.694;13.294;2023-12-20T00:45:31;6.60;99.90
18577;DHT22;9418;52.694;13.294;2023-12-20T00:47:58;6.60;99.90
18577;DHT22;9418;52.694;13.294;2023-12-20T00:50:25;6.60;99.90
18577;DHT22;9418;52.694;13.294;2023-12-20T00:52:52;6.60;99.90
18577;DHT22;9418;52.694;13.294;2023-12-20T00:55:20;6.60;99.90
18577;DHT22;9418;52.694;13.294;2023-12-20T00:57:46;6.60;99.90
18577;DHT22;9418;52.694;13.294;2023-12-20T01:00:15;6.70;99.90
18577;DHT22;9418;52.694;13.294;2023-12-20T01:02:42;6.70;99.90
18577;DHT22;9418;52.694;13.294;2023-12-20T01:05:08;6.60;99.90
18577;DHT22;9418;52.694;13.294;2023-12-20T01:07:35;6.70;99.90
18577;DHT22;9418;52.694;13.294;2023-12-20T01:10:01;6.60;99.90
18577;DHT22;9418;52.694;13.294;2023-12-20T01:12:28;6.60;99.90
18577;DHT22;9418;52.694;13.294;2023-12-20T01:14:55;6.70;99.90
18577;DHT22;9418;52.694;13.294;2023-12-20T01:17:23;6.70;99.90
18577;DHT22;9418;52.694;13.294;2023-12-20T01:19:49;6.70;99.90
18577;DHT22;9418;52.694;13.294;2023-12-20T01:22:16;6.70;99.90
18577;DHT22;9418;52.694;13.294;2023-12-20T01:24:42;6.60;99.90
18577;DHT22;9418;52.694;13.294;2023-12-20T01:27:09;6.70;99.90
18577;DHT22;9418;52.694;13.294;2023-12-20T01:29:35;6.60;99.90
18577;DHT22;9418;52.694;13.294;2023-12-20T01:32:02;6.70;99.90
18577;DHT22;9418;52.694;13.294;2023-12-20T01:34:30;6.70;99.90
18577;DHT22;9418;52.694;13.294;2023-12-20T01:36:56;6.70;99.90
18577;DHT22;9418;52.694;13.294;2023-12-20T01:39:23;6.70;99.90
18577;DHT22;9418;52.694;13.294;2023-12-20T01:41:50;6.70;99.90
18577;DHT22;9418;52.694;13.294;2023-12-20T01:44:16;6.70;99.90
18577;DHT22;9418;52.694;13.294;2023-12-20T01:46:43;6.60;99.90
18577;DHT22;9418;52.694;13.294;2023-12-20T01:49:09;6.70;99.90
18577;DHT22;9418;52.694;13.294;2023-12-20T01:51:37;6.70;99.90
18577;DHT22;9418;52.694;13.294;2023-12-20T01:54:04;6.70;99.90
18577;DHT22;9418;52.694;13.294;2023-12-20T01:56:31;6.60;99.90
18577;DHT22;9418;52.694;13.294;2023-12-20T01:58:58;6.70;99.90
18577;DHT22;9418;52.694;13.294;2023-12-20T02:01:26;6.60;99.90
18577;DHT22;9418;52.694;13.294;2023-12-20T02:03:54;6.60;99.90
18577;DHT22;9418;52.694;13.294;2023-12-20T02:06:21;6.60;99.90
18577;DHT22;9418;52.694;13.294;2023-12-20T02:08:51;6.60;99.90
18577;DHT22;9418;52.694;13.294;2023-12-20T02:11:17;6.60;99.90
18577;DHT22;9418;52.694;13.294;2023-12-20T02:13:44;6.60;99.90
18577;DHT22;9418;52.694;13.294;2023-12-20T02:16:11;6.50;99.90
18577;DHT22;9418;52.694;13.294;2023-12-20T02:18:37;6.50;99.90
18577;DHT22;9418;52.694;13.294;2023-12-20T02:21:04;6.50;99.90
18577;DHT22;9418;52.694;13.294;2023-12-20T02:23:32;6.50;99.90
18577;DHT22;9418;52.694;13.294;2023-12-20T02:25:59;6.50;99.90
18577;DHT22;9418;52.694;13.294;2023-12-20T02:28:26;6.40;99.90
18577;DHT22;9418;52.694;13.294;2023-12-20T02:30:53;6.30;99.90
18577;DHT22;9418;52.694;13.294;2023-12-20T02:33:19;6.30;99.90
18577;DHT22;9418;52.694;13.294;2023-12-20T02:35:46;6.30;99.90
18577;DHT22;9418;52.694;13.294;2023-12-20T02:38:13;6.20;99.90
18577;DHT22;9418;52.694;13.294;2023-12-20T02:40:41;6.20;99.90
18577;DHT22;9418;52.694;13.294;2023-12-20T02:43:07;6.10;99.90
18577;DHT22;9418;52.694;13.294;2023-12-20T02:45:34;6.20;99.90
18577;DHT22;9418;52.694;13.294;2023-12-20T02:48:00;6.20;99.90
18577;DHT22;9418;52.694;13.294;2023-12-20T02:50:27;6.20;99.90
18577;DHT22;9418;52.694;13.294;2023-12-20T02:52:53;6.10;99.90
18577;DHT22;9418;52.694;13.294;2023-12-20T02:55:20;6.10;99.90
18577;DHT22;9418;52.694;13.294;2023-12-20T02:57:48;6.00;99.90
18577;DHT22;9418;52.694;13.294;2023-12-20T03:00:14;5.90;99.90
18577;DHT22;9418;52.694;13.294;2023-12-20T03:02:41;5.90;99.90
18577;DHT22;9418;52.694;13.294;2023-12-20T03:05:08;5.80;99.90
18577;DHT22;9418;52.694;13.294;2023-12-20T03:07:36;5.70;99.90
18577;DHT22;9418;52.694;13.294;2023-12-20T03:10:04;5.80;99.90
18577;DHT22;9418;52.694;13.294;2023-12-20T03:12:31;5.70;99.90
18577;DHT22;9418;52.694;13.294;2023-12-20T03:14:59;5.70;99.90
18577;DHT22;9418;52.694;13.294;2023-12-20T03:17:26;5.70;99.90
18577;DHT22;9418;52.694;13.294;2023-12-20T03:19:52;5.60;99.90
18577;DHT22;9418;52.694;13.294;2023-12-20T03:22:19;5.60;99.90
18577;DHT22;9418;52.694;13.294;2023-12-20T03:24:45;5.60;99.90
18577;DHT22;9418;52.694;13.294;2023-12-20T03:27:12;5.60;99.90
18577;DHT22;9418;52.694;13.294;2023-12-20T03:29:38;5.60;99.90
18577;DHT22;9418;52.694;13.294;2023-12-20T03:32:06;5.50;99.90
18577;DHT22;9418;52.694;13.294;2023-12-20T03:34:34;5.50;99.90
18577;DHT22;9418;52.694;13.294;2023-12-20T03:37:00;5.50;99.90
18577;DHT22;9418;52.694;13.294;2023-12-20T03:39:27;5.50;99.90
18577;DHT22;9418;52.694;13.294;2023-12-20T03:41:53;5.50;99.90
18577;DHT22;9418;52.694;13.294;2023-12-20T03:44:20;5.50;99.90
18577;DHT22;9418;52.694;13.294;2023-12-20T03:46:46;5.50;99.90
18577;DHT22;9418;52.694;13.294;2023-12-20T03:49:15;5.50;99.90
18577;DHT22;9418;52.694;13.294;2023-12-20T03:51:42;5.60;99.90
18577;DHT22;9418;52.694;13.294;2023-12-20T03:54:09;5.60;99.90
18577;DHT22;9418;52.694;13.294;2023-12-20T03:56:35;5.60;99.90
18577;DHT22;9418;52.694;13.294;2023-12-20T03:59:02;5.60;99.90
18577;DHT22;9418;52.694;13.294;2023-12-20T04:01:29;5.60;99.90
18577;DHT22;9418;52.694;13.294;2023-12-20T04:03:55;5.60;99.90
18577;DHT22;9418;52.694;13.294;2023-12-20T04:06:23;5.50;99.90
18577;DHT22;9418;52.694;13.294;2023-12-20T04:08:50;5.50;99.90
18577;DHT22;9418;52.694;13.294;2023-12-20T04:11:16;5.50;99.90
18577;DHT22;9418;52.694;13.294;2023-12-20T04:13:43;5.60;99.90
18577;DHT22;9418;52.694;13.294;2023-12-20T04:16:09;5.60;99.90
18577;DHT22;9418;52.694;13.294;2023-12-20T04:18:36;5.50;99.90
18577;DHT22;9418;52.694;13.294;2023-12-20T04:21:03;5.50;99.90
18577;DHT22;9418;52.694;13.294;2023-12-20T04:23:31;5.50;99.90
18577;DHT22;9418;52.694;13.294;2023-12-20T04:25:57;5.50;99.90
18577;DHT22;9418;52.694;13.294;2023-12-20T04:28:24;5.50;99.90
18577;DHT22;9418;52.694;13.294;2023-12-20T04:30:50;5.50;99.90
18577;DHT22;9418;52.694;13.294;2023-12-20T04:33:17;5.50;99.90
18577;DHT22;9418;52.694;13.294;2023-12-20T04:35:44;5.50;99.90
18577;DHT22;9418;52.694;13.294;2023-12-20T04:38:11;5.40;99.90
18577;DHT22;9418;52.694;13.294;2023-12-20T04:40:39;5.40;99.90
18577;DHT22;9418;52.694;13.294;2023-12-20T04:43:06;5.40;99.90
18577;DHT22;9418;52.694;13.294;2023-12-20T04:45:33;5.30;99.90
18577;DHT22;9418;52.694;13.294;2023-12-20T04:47:59;5.30;99.90
18577;DHT22;9418;52.694;13.294;2023-12-20T04:50:26;5.20;99.90
18577;DHT22;9418;52.694;13.294;2023-12-20T04:52:53;5.10;99.90
18577;DHT22;9418;52.694;13.294;2023-12-20T04:55:19;5.10;99.90
18577;DHT22;9418;52.694;13.294;2023-12-20T04:57:47;5.00;99.90
18577;DHT22;9418;52.694;13.294;2023-12-20T05:00:14;4.90;99.90
18577;DHT22;9418;52.694;13.294;2023-12-20T05:02:41;4.90;99.90
18577;DHT22;9418;52.694;13.294;2023-12-20T05:05:08;4.80;99.90
18577;DHT22;9418;52.694;13.294;2023-12-20T05:07:35;4.70;99.90
18577;DHT22;9418;52.694;13.294;2023-12-20T05:10:01;4.70;99.90
18577;DHT22;9418;52.694;13.294;2023-12-20T05:12:29;4.70;99.90
18577;DHT22;9418;52.694;13.294;2023-12-20T05:14:58;4.60;99.90
18577;DHT22;9418;52.694;13.294;2023-12-20T05:17:25;4.60;99.90
18577;DHT22;9418;52.694;13.294;2023-12-20T05:19:51;4.50;99.90
18577;DHT22;9418;52.694;13.294;2023-12-20T05:22:18;4.50;99.90
18577;DHT22;9418;52.694;13.294;2023-12-20T05:24:45;4.50;99.90
18577;DHT22;9418;52.694;13.294;2023-12-20T05:27:12;4.40;99.90
18577;DHT22;9418;52.694;13.294;2023-12-20T05:29:38;4.40;99.90
18577;DHT22;9418;52.694;13.294;2023-12-20T05:32:06;4.50;99.90
18577;DHT22;9418;52.694;13.294;2023-12-20T05:34:33;4.40;99.90
18577;DHT22;9418;52.694;13.294;2023-12-20T05:36:59;4.40;99.90
18577;DHT22;9418;52.694;13.294;2023-12-20T05:39:27;4.40;99.90
18577;DHT22;9418;52.694;13.294;2023-12-20T05:41:53;4.30;99.90
18577;DHT22;9418;52.694;13.294;2023-12-20T05:44:20;4.30;99.90
18577;DHT22;9418;52.694;13.294;2023-12-20T05:46:46;4.30;99.90
18577;DHT22;9418;52.694;13.294;2023-12-20T05:49:14;4.30;99.90
18577;DHT22;9418;52.694;13.294;2023-12-20T05:51:41;4.30;99.90
18577;DHT22;9418;52.694;13.294;2023-12-20T05:54:08;4.40;99.90
18577;DHT22;9418;52.694;13.294;2023-12-20T05:56:35;4.40;99.90
18577;DHT22;9418;52.694;13.294;2023-12-20T05:59:01;4.50;99.90
18577;DHT22;9418;52.694;13.294;2023-12-20T06:01:28;4.50;99.90
18577;DHT22;9418;52.694;13.294;2023-12-20T06:03:55;4.50;99.90
18577;DHT22;9418;52.694;13.294;2023-12-20T06:06:23;4.50;99.90
18577;DHT22;9418;52.694;13.294;2023-12-20T06:08:49;4.50;99.90
18577;DHT22;9418;52.694;13.294;2023-12-20T06:11:16;4.50;99.90
18577;DHT22;9418;52.694;13.294;2023-12-20T06:13:42;4.40;99.90
18577;DHT22;9418;52.694;13.294;2023-12-20T06:16:09;4.40;99.90
18577;DHT22;9418;52.694;13.294;2023-12-20T06:18:36;4.40;99.90
18577;DHT22;9418;52.694;13.294;2023-12-20T06:21:03;4.40;99.90
18577;DHT22;9418;52.694;13.294;2023-12-20T06:23:31;4.40;99.90
18577;DHT22;9418;52.694;13.294;2023-12-20T06:25:57;4.50;99.90
18577;DHT22;9418;52.694;13.294;2023-12-20T06:28:24;4.50;99.90
18577;DHT22;9418;52.694;13.294;2023-12-20T06:30:50;4.50;99.90
18577;DHT22;9418;52.694;13.294;2023-12-20T06:33:20;4.50;99.90
18577;DHT22;9418;52.694;13.294;2023-12-20T06:35:47;4.50;99.90
18577;DHT22;9418;52.694;13.294;2023-12-20T06:38:14;4.50;99.90
18577;DHT22;9418;52.694;13.294;2023-12-20T06:40:42;4.50;99.90
18577;DHT22;9418;52.694;13.294;2023-12-20T06:43:09;4.50;99.90
18577;DHT22;9418;52.694;13.294;2023-12-20T06:45:35;4.50;99.90
18577;DHT22;9418;52.694;13.294;2023-12-20T06:48:02;4.60;99.90
18577;DHT22;9418;52.694;13.294;2023-12-20T06:50:29;4.60;99.90
18577;DHT22;9418;52.694;13.294;2023-12-20T06:52:55;4.60;99.90
18577;DHT22;9418;52.694;13.294;2023-12-20T06:55:22;4.60;99.90
18577;DHT22;9418;52.694;13.294;2023-12-20T06:57:50;4.60;99.90
18577;DHT22;9418;52.694;13.294;2023-12-20T07:00:17;4.60;99.90
18577;DHT22;9418;52.694;13.294;2023-12-20T07:02:45;4.70;99.90
18577;DHT22;9418;52.694;13.294;2023-12-20T07:05:15;4.70;99.90
18577;DHT22;9418;52.694;13.294;2023-12-20T07:07:42;4.80;99.90
18577;DHT22;9418;52.694;13.294;2023-12-20T07:10:08;4.80;99.90
18577;DHT22;9418;52.694;13.294;2023-12-20T07:12:35;4.80;99.90
18577;DHT22;9418;52.694;13.294;2023-12-20T07:15:04;4.80;99.20
18577;DHT22;9418;52.694;13.294;2023-12-20T07:17:31;4.80;92.00
18577;DHT22;9418;52.694;13.294;2023-12-20T07:19:58;4.80;77.70
18577;DHT22;9418;52.694;13.294;2023-12-20T07:22:28;4.80;21.80
18577;DHT22;9418;52.694;13.294;2023-12-20T07:24:55;4.90;26.10
18577;DHT22;9418;52.694;13.294;2023-12-20T07:27:21;4.90;27.50
18577;DHT22;9418;52.694;13.294;2023-12-20T07:29:48;4.90;29.20
18577;DHT22;9418;52.694;13.294;2023-12-20T07:32:16;4.90;30.00
18577;DHT22;9418;52.694;13.294;2023-12-20T07:34:42;4.90;37.50
18577;DHT22;9418;52.694;13.294;2023-12-20T07:37:09;4.90;36.90
18577;DHT22;9418;52.694;13.294;2023-12-20T07:39:37;5.00;50.50
18577;DHT22;9418;52.694;13.294;2023-12-20T07:42:04;5.00;51.60
18577;DHT22;9418;52.694;13.294;2023-12-20T07:44:30;5.00;54.00
18577;DHT22;9418;52.694;13.294;2023-12-20T07:46:57;5.10;59.10
18577;DHT22;9418;52.694;13.294;2023-12-20T07:49:25;5.10;56.80
18577;DHT22;9418;52.694;13.294;2023-12-20T07:51:52;5.00;54.60
18577;DHT22;9418;52.694;13.294;2023-12-20T07:54:18;5.00;54.40
18577;DHT22;9418;52.694;13.294;2023-12-20T07:56:46;5.00;54.60
18577;DHT22;9418;52.694;13.294;2023-12-20T07:59:12;5.10;56.60
18577;DHT22;9418;52.694;13.294;2023-12-20T08:01:39;5.10;59.10
18577;DHT22;9418;52.694;13.294;2023-12-20T08:04:05;5.10;59.10
18577;DHT22;9418;52.694;13.294;2023-12-20T08:06:33;5.10;59.70
18577;DHT22;9418;52.694;13.294;2023-12-20T08:09:00;5.10;62.90
18577;DHT22;9418;52.694;13.294;2023-12-20T08:11:27;5.20;69.80
18577;DHT22;9418;52.694;13.294;2023-12-20T08:13:53;5.10;68.90
18577;DHT22;9418;52.694;13.294;2023-12-20T08:16:20;5.20;72.00
18577;DHT22;9418;52.694;13.294;2023-12-20T08:18:47;5.20;74.00
18577;DHT22;9418;52.694;13.294;2023-12-20T08:21:14;5.20;75.80
18577;DHT22;9418;52.694;13.294;2023-12-20T08:23:41;5.20;76.20
18577;DHT22;9418;52.694;13.294;2023-12-20T08:26:08;5.20;79.10
18577;DHT22;9418;52.694;13.294;2023-12-20T08:28:35;5.20;77.80
18577;DHT22;9418;52.694;13.294;2023-12-20T08:31:03;5.20;82.40
18577;DHT22;9418;52.694;13.294;2023-12-20T08:33:29;5.30;89.10
18577;DHT22;9418;52.694;13.294;2023-12-20T08:35:56;5.30;88.80
18577;DHT22;9418;52.694;13.294;2023-12-20T08:38:21;5.30;96.90
18577;DHT22;9418;52.694;13.294;2023-12-20T08:40:49;5.40;96.80
18577;DHT22;9418;52.694;13.294;2023-12-20T08:43:16;5.40;99.80
18577;DHT22;9418;52.694;13.294;2023-12-20T08:45:43;5.40;96.70
18577;DHT22;9418;52.694;13.294;2023-12-20T08:48:10;5.40;99.90
18577;DHT22;9418;52.694;13.294;2023-12-20T08:50:36;5.50;99.90
18577;DHT22;9418;52.694;13.294;2023-12-20T08:53:04;5.50;99.90
18577;DHT22;9418;52.694;13.294;2023-12-20T08:55:30;5.50;99.90
18577;DHT22;9418;52.694;13.294;2023-12-20T08:57:58;5.60;99.90
18577;DHT22;9418;52.694;13.294;2023-12-20T09:00:25;5.60;99.90
18577;DHT22;9418;52.694;13.294;2023-12-20T09:02:53;5.70;99.90
18577;DHT22;9418;52.694;13.294;2023-12-20T09:05:19;5.70;99.90
18577;DHT22;9418;52.694;13.294;2023-12-20T09:07:46;5.70;99.90
18577;DHT22;9418;52.694;13.294;2023-12-20T09:10:12;5.70;99.90
18577;DHT22;9418;52.694;13.294;2023-12-20T09:12:39;5.70;99.90
18577;DHT22;9418;52.694;13.294;2023-12-20T09:15:09;5.70;99.90
18577;DHT22;9418;52.694;13.294;2023-12-20T09:17:35;5.70;99.90
18577;DHT22;9418;52.694;13.294;2023-12-20T09:20:02;5.70;99.90
18577;DHT22;9418;52.694;13.294;2023-12-20T09:22:32;5.70;99.90
18577;DHT22;9418;52.694;13.294;2023-12-20T09:24:58;5.70;99.90
18577;DHT22;9418;52.694;13.294;2023-12-20T09:27:25;5.60;99.90
18577;DHT22;9418;52.694;13.294;2023-12-20T09:29:52;5.60;99.90
18577;DHT22;9418;52.694;13.294;2023-12-20T09:32:20;5.60;99.90
18577;DHT22;9418;52.694;13.294;2023-12-20T09:34:47;5.60;99.90
18577;DHT22;9418;52.694;13.294;2023-12-20T09:37:14;5.60;99.90
18577;DHT22;9418;52.694;13.294;2023-12-20T09:39:40;5.60;99.90
18577;DHT22;9418;52.694;13.294;2023-12-20T09:42:07;5.70;99.90
18577;DHT22;9418;52.694;13.294;2023-12-20T09:44:34;5.70;99.90
18577;DHT22;9418;52.694;13.294;2023-12-20T09:47:03;5.70;99.90
18577;DHT22;9418;52.694;13.294;2023-12-20T09:49:33;5.70;99.90
18577;DHT22;9418;52.694;13.294;2023-12-20T09:52:00;5.70;99.90
18577;DHT22;9418;52.694;13.294;2023-12-20T09:54:28;5.70;99.90
18577;DHT22;9418;52.694;13.294;2023-12-20T09:56:56;5.80;99.90
18577;DHT22;9418;52.694;13.294;2023-12-20T09:59:23;5.80;99.90
18577;DHT22;9418;52.694;13.294;2023-12-20T10:01:51;5.80;99.90
18577;DHT22;9418;52.694;13.294;2023-12-20T10:04:21;5.80;99.90
18577;DHT22;9418;52.694;13.294;2023-12-20T10:06:49;5.80;99.90
18577;DHT22;9418;52.694;13.294;2023-12-20T10:09:17;5.80;99.90
18577;DHT22;9418;52.694;13.294;2023-12-20T10:11:44;5.80;99.90
18577;DHT22;9418;52.694;13.294;2023-12-20T10:14:12;5.90;99.90
18577;DHT22;9418;52.694;13.294;2023-12-20T10:16:40;5.90;99.90
18577;DHT22;9418;52.694;13.294;2023-12-20T10:19:07;5.90;99.90
18577;DHT22;9418;52.694;13.294;2023-12-20T10:21:34;5.90;99.90
18577;DHT22;9418;52.694;13.294;2023-12-20T10:24:02;5.90;99.90
18577;DHT22;9418;52.694;13.294;2023-12-20T10:26:28;5.90;99.90
18577;DHT22;9418;52.694;13.294;2023-12-20T10:28:56;5.90;99.90
18577;DHT22;9418;52.694;13.294;2023-12-20T10:31:27;6.00;99.90
18577;DHT22;9418;52.694;13.294;2023-12-20T10:33:55;6.00;99.90
18577;DHT22;9418;52.694;13.294;2023-12-20T10:36:23;6.10;99.90
18577;DHT22;9418;52.694;13.294;2023-12-20T10:38:52;6.10;99.90
18577;DHT22;9418;52.694;13.294;2023-12-20T10:41:25;6.10;99.90
18577;DHT22;9418;52.694;13.294;2023-12-20T10:43:54;6.10;99.90
18577;DHT22;9418;52.694;13.294;2023-12-20T10:46:21;6.00;99.90
18577;DHT22;9418;52.694;13.294;2023-12-20T10:48:48;6.00;99.90
18577;DHT22;9418;52.694;13.294;2023-12-20T10:51:17;6.00;99.90
18577;DHT22;9418;52.694;13.294;2023-12-20T10:53:47;6.00;99.90
18577;DHT22;9418;52.694;13.294;2023-12-20T10:56:16;5.90;99.90
18577;DHT22;9418;52.694;13.294;2023-12-20T10:58:45;6.00;99.90
18577;DHT22;9418;52.694;13.294;2023-12-20T11:01:13;6.00;99.90
18577;DHT22;9418;52.694;13.294;2023-12-20T11:03:44;6.10;99.90
18577;DHT22;9418;52.694;13.294;2023-12-20T11:06:19;6.10;99.90
18577;DHT22;9418;52.694;13.294;2023-12-20T11:08:58;6.10;99.90
18577;DHT22;9418;52.694;13.294;2023-12-20T11:11:37;6.10;99.90
18577;DHT22;9418;52.694;13.294;2023-12-20T11:14:08;6.20;99.90
18577;DHT22;9418;52.694;13.294;2023-12-20T11:16:38;6.20;99.90
18577;DHT22;9418;52.694;13.294;2023-12-20T11:19:07;6.20;99.90
18577;DHT22;9418;52.694;13.294;2023-12-20T11:21:34;6.10;99.90
18577;DHT22;9418;52.694;13.294;2023-12-20T11:24:01;6.10;99.90
18577;DHT22;9418;52.694;13.294;2023-12-20T11:26:29;6.00;99.90
18577;DHT22;9418;52.694;13.294;2023-12-20T11:29:35;5.90;99.90
18577;DHT22;9418;52.694;13.294;2023-12-20T11:32:02;5.90;99.90
18577;DHT22;9418;52.694;13.294;2023-12-20T11:34:32;5.90;99.90
18577;DHT22;9418;52.694;13.294;2023-12-20T11:36:59;5.90;99.90
18577;DHT22;9418;52.694;13.294;2023-12-20T11:39:27;5.90;99.90
18577;DHT22;9418;52.694;13.294;2023-12-20T11:41:55;5.80;99.90
18577;DHT22;9418;52.694;13.294;2023-12-20T11:44:23;5.80;99.90
18577;DHT22;9418;52.694;13.294;2023-12-20T11:46:52;5.80;99.90
18577;DHT22;9418;52.694;13.294;2023-12-20T11:49:23;5.90;99.90
18577;DHT22;9418;52.694;13.294;2023-12-20T11:51:50;5.90;99.90
18577;DHT22;9418;52.694;13.294;2023-12-20T11:54:16;5.90;99.90
18577;DHT22;9418;52.694;13.294;2023-12-20T11:56:43;5.90;99.90
18577;DHT22;9418;52.694;13.294;2023-12-20T11:59:10;5.90;99.90
18577;DHT22;9418;52.694;13.294;2023-12-20T12:01:37;5.90;99.90
18577;DHT22;9418;52.694;13.294;2023-12-20T12:04:05;5.90;99.90
18577;DHT22;9418;52.694;13.294;2023-12-20T12:06:32;6.00;99.90
18577;DHT22;9418;52.694;13.294;2023-12-20T12:08:58;6.00;99.90
18577;DHT22;9418;52.694;13.294;2023-12-20T12:11:25;6.00;99.90
18577;DHT22;9418;52.694;13.294;2023-12-20T12:13:52;6.00;99.90
18577;DHT22;9418;52.694;13.294;2023-12-20T12:16:19;6.00;99.90
18577;DHT22;9418;52.694;13.294;2023-12-20T12:18:46;5.90;99.90
18577;DHT22;9418;52.694;13.294;2023-12-20T12:21:22;5.90;95.40
18577;DHT22;9418;52.694;13.294;2023-12-20T12:23:48;5.80;87.40
18577;DHT22;9418;52.694;13.294;2023-12-20T12:26:15;5.80;83.00
18577;DHT22;9418;52.694;13.294;2023-12-20T12:28:42;5.80;71.20
18577;DHT22;9418;52.694;13.294;2023-12-20T12:31:13;5.70;63.60
18577;DHT22;9418;52.694;13.294;2023-12-20T12:33:40;5.70;63.10
18577;DHT22;9418;52.694;13.294;2023-12-20T12:36:07;5.70;59.60
18577;DHT22;9418;52.694;13.294;2023-12-20T12:38:35;5.60;55.90
18577;DHT22;9418;52.694;13.294;2023-12-20T12:41:02;5.70;50.60
18577;DHT22;9418;52.694;13.294;2023-12-20T12:43:28;5.70;50.00
18577;DHT22;9418;52.694;13.294;2023-12-20T12:45:55;5.60;44.90
18577;DHT22;9418;52.694;13.294;2023-12-20T12:48:21;5.60;47.40
18577;DHT22;9418;52.694;13.294;2023-12-20T12:50:48;5.60;45.00
18577;DHT22;9418;52.694;13.294;2023-12-20T12:53:14;5.60;41.90
18577;DHT22;9418;52.694;13.294;2023-12-20T12:55:42;5.50;38.00
18577;DHT22;9418;52.694;13.294;2023-12-20T12:58:08;5.50;33.30
18577;DHT22;9418;52.694;13.294;2023-12-20T13:00:35;5.50;31.20
18577;DHT22;9418;52.694;13.294;2023-12-20T13:03:02;5.50;29.80
18577;DHT22;9418;52.694;13.294;2023-12-20T13:05:29;5.40;28.10
18577;DHT22;9418;52.694;13.294;2023-12-20T13:07:57;5.30;31.70
18577;DHT22;9418;52.694;13.294;2023-12-20T13:10:24;5.20;32.70
18577;DHT22;9418;52.694;13.294;2023-12-20T13:12:52;5.10;31.70
18577;DHT22;9418;52.694;13.294;2023-12-20T13:15:18;5.00;30.70
18577;DHT22;9418;52.694;13.294;2023-12-20T13:17:45;5.00;27.50
18577;DHT22;9418;52.694;13.294;2023-12-20T13:20:12;5.10;26.10
18577;DHT22;9418;52.694;13.294;2023-12-20T13:22:38;5.10;24.80
18577;DHT22;9418;52.694;13.294;2023-12-20T13:25:05;5.20;22.50
18577;DHT22;9418;52.694;13.294;2023-12-20T13:27:32;5.20;21.40
18577;DHT22;9418;52.694;13.294;2023-12-20T13:30:01;5.30;21.50
18577;DHT22;9418;52.694;13.294;2023-12-20T13:32:28;5.20;23.10
18577;DHT22;9418;52.694;13.294;2023-12-20T13:34:55;5.30;25.70
18577;DHT22;9418;52.694;13.294;2023-12-20T13:37:21;5.20;28.00
18577;DHT22;9418;52.694;13.294;2023-12-20T13:39:48;5.30;27.60
18577;DHT22;9418;52.694;13.294;2023-12-20T13:42:15;5.30;30.50
18577;DHT22;9418;52.694;13.294;2023-12-20T13:44:41;5.60;39.00
18577;DHT22;9418;52.694;13.294;2023-12-20T13:47:10;6.00;64.00
18577;DHT22;9418;52.694;13.294;2023-12-20T13:49:37;5.90;71.20
18577;DHT22;9418;52.694;13.294;2023-12-20T13:52:04;5.70;72.90
18577;DHT22;9418;52.694;13.294;2023-12-20T13:54:30;5.50;79.20
18577;DHT22;9418;52.694;13.294;2023-12-20T13:56:57;5.50;83.70
18577;DHT22;9418;52.694;13.294;2023-12-20T13:59:24;5.40;84.10
18577;DHT22;9418;52.694;13.294;2023-12-20T14:01:51;5.30;95.00
18577;DHT22;9418;52.694;13.294;2023-12-20T14:04:20;5.30;92.20
18577;DHT22;9418;52.694;13.294;2023-12-20T14:06:47;5.30;86.80
18577;DHT22;9418;52.694;13.294;2023-12-20T14:09:13;5.10;86.50
18577;DHT22;9418;52.694;13.294;2023-12-20T14:11:41;5.10;84.60
18577;DHT22;9418;52.694;13.294;2023-12-20T14:14:08;5.00;81.90
18577;DHT22;9418;52.694;13.294;2023-12-20T14:16:36;4.90;74.70
18577;DHT22;9418;52.694;13.294;2023-12-20T14:19:03;4.90;76.60
18577;DHT22;9418;52.694;13.294;2023-12-20T14:21:34;4.90;78.60
18577;DHT22;9418;52.694;13.294;2023-12-20T14:24:00;4.80;79.20
18577;DHT22;9418;52.694;13.294;2023-12-20T14:26:27;4.80;85.10
18577;DHT22;9418;52.694;13.294;2023-12-20T14:28:54;4.80;78.90
18577;DHT22;9418;52.694;13.294;2023-12-20T14:31:20;4.80;77.30
18577;DHT22;9418;52.694;13.294;2023-12-20T14:33:49;4.80;79.60
18577;DHT22;9418;52.694;13.294;2023-12-20T14:36:16;4.80;83.10
18577;DHT22;9418;52.694;13.294;2023-12-20T14:38:44;4.90;79.00
18577;DHT22;9418;52.694;13.294;2023-12-20T14:41:12;4.90;96.30
18577;DHT22;9418;52.694;13.294;2023-12-20T14:43:38;4.90;99.90
18577;DHT22;9418;52.694;13.294;2023-12-20T14:46:05;4.90;99.90
18577;DHT22;9418;52.694;13.294;2023-12-20T14:48:31;4.90;99.90
18577;DHT22;9418;52.694;13.294;2023-12-20T14:50:58;4.90;99.90
18577;DHT22;9418;52.694;13.294;2023-12-20T14:53:26;4.80;99.60
18577;DHT22;9418;52.694;13.294;2023-12-20T14:55:54;4.80;98.00
18577;DHT22;9418;52.694;13.294;2023-12-20T14:58:20;4.80;96.40
18577;DHT22;9418;52.694;13.294;2023-12-20T15:00:47;4.80;97.30
18577;DHT22;9418;52.694;13.294;2023-12-20T15:03:14;4.70;92.10
18577;DHT22;9418;52.694;13.294;2023-12-20T15:05:43;4.60;88.90
18577;DHT22;9418;52.694;13.294;2023-12-20T15:08:09;4.60;86.40
18577;DHT22;9418;52.694;13.294;2023-12-20T15:10:36;4.50;77.00
18577;DHT22;9418;52.694;13.294;2023-12-20T15:13:04;4.50;76.30
18577;DHT22;9418;52.694;13.294;2023-12-20T15:15:31;4.50;63.20
18577;DHT22;9418;52.694;13.294;2023-12-20T15:17:59;4.40;55.80
18577;DHT22;9418;52.694;13.294;2023-12-20T15:20:26;4.40;53.20
18577;DHT22;9418;52.694;13.294;2023-12-20T15:22:52;4.40;48.20
18577;DHT22;9418;52.694;13.294;2023-12-20T15:25:20;4.40;46.20
18577;DHT22;9418;52.694;13.294;2023-12-20T15:27:47;4.30;45.20
18577;DHT22;9418;52.694;13.294;2023-12-20T15:30:19;4.30;45.00
18577;DHT22;9418;52.694;13.294;2023-12-20T15:32:46;4.20;44.50
18577;DHT22;9418;52.694;13.294;2023-12-20T15:35:12;4.20;44.30
18577;DHT22;9418;52.694;13.294;2023-12-20T15:37:39;4.20;42.60
18577;DHT22;9418;52.694;13.294;2023-12-20T15:40:08;4.20;40.40
18577;DHT22;9418;52.694;13.294;2023-12-20T15:42:36;4.10;41.10
18577;DHT22;9418;52.694;13.294;2023-12-20T15:45:03;4.00;39.90